05U

Eureka Airport

Eureka, Nevada, USA
METAR K05U 151215Z AUTO 21006KT 10SM 14/04 A3017 RMK A01
Observed Flight Rules
Aug-15 @ 12:15 UTC (26 minutes ago)
Wind Visibility
210° at 6 knots 10 miles
Temperatures Readings
Current 14°C / 57°F
Dewpoint 4°C / 39°F
Humidity 51%
Altimeter 30.17" Hg
Pressure 1022 hPa
Elevation 1816
METAR K05U 151215Z AUTO 21006KT 10SM 14/04 A3017 RMK A01
Observed Flight Rules
Aug-15 @ 12:15 UTC
(26 minutes ago)
Wind Visibility
210° at 6 knots 10 miles
Temperature Dewpoint
14°C / 57°F 4°C / 39°F
Humidity Altimeter Pressure
51% 30.17" Hg 1022 hPa